sensor_id;sensor_type;location;lat;lon;timestamp;P1;durP1;ratioP1;P2;durP2;ratioP2
55210;SDS011;41082;52.822;6.666;2024-02-26T00:01:27;12.23;;;9.52;;
55210;SDS011;41082;52.822;6.666;2024-02-26T00:03:56;13.40;;;9.82;;
55210;SDS011;41082;52.822;6.666;2024-02-26T00:06:24;12.93;;;10.05;;
55210;SDS011;41082;52.822;6.666;2024-02-26T00:08:50;12.82;;;10.10;;
55210;SDS011;41082;52.822;6.666;2024-02-26T00:11:15;14.18;;;10.23;;
55210;SDS011;41082;52.822;6.666;2024-02-26T00:13:41;12.95;;;9.77;;
55210;SDS011;41082;52.822;6.666;2024-02-26T00:16:07;14.20;;;10.45;;
55210;SDS011;41082;52.822;6.666;2024-02-26T00:18:33;14.57;;;10.30;;
55210;SDS011;41082;52.822;6.666;2024-02-26T00:20:58;13.85;;;10.10;;
55210;SDS011;41082;52.822;6.666;2024-02-26T00:23:25;11.57;;;9.90;;
55210;SDS011;41082;52.822;6.666;2024-02-26T00:25:52;12.02;;;9.40;;
55210;SDS011;41082;52.822;6.666;2024-02-26T00:28:17;13.13;;;9.10;;
55210;SDS011;41082;52.822;6.666;2024-02-26T00:30:45;11.77;;;9.52;;
55210;SDS011;41082;52.822;6.666;2024-02-26T00:33:11;13.38;;;9.68;;
55210;SDS011;41082;52.822;6.666;2024-02-26T00:35:36;12.70;;;9.55;;
55210;SDS011;41082;52.822;6.666;2024-02-26T00:38:02;16.10;;;9.68;;
55210;SDS011;41082;52.822;6.666;2024-02-26T00:40:29;13.35;;;8.82;;
55210;SDS011;41082;52.822;6.666;2024-02-26T00:42:54;10.18;;;8.10;;
55210;SDS011;41082;52.822;6.666;2024-02-26T00:45:20;13.45;;;8.75;;
55210;SDS011;41082;52.822;6.666;2024-02-26T00:47:45;12.80;;;8.88;;
55210;SDS011;41082;52.822;6.666;2024-02-26T00:50:12;12.43;;;8.70;;
55210;SDS011;41082;52.822;6.666;2024-02-26T00:52:38;12.75;;;8.77;;
55210;SDS011;41082;52.822;6.666;2024-02-26T00:55:04;15.40;;;10.63;;
55210;SDS011;41082;52.822;6.666;2024-02-26T00:57:31;14.00;;;9.40;;
55210;SDS011;41082;52.822;6.666;2024-02-26T00:59:56;14.15;;;9.48;;
55210;SDS011;41082;52.822;6.666;2024-02-26T01:02:22;13.77;;;9.73;;
55210;SDS011;41082;52.822;6.666;2024-02-26T01:04:48;12.43;;;9.57;;
55210;SDS011;41082;52.822;6.666;2024-02-26T01:07:13;14.65;;;10.05;;
55210;SDS011;41082;52.822;6.666;2024-02-26T01:09:39;14.23;;;9.63;;
55210;SDS011;41082;52.822;6.666;2024-02-26T01:12:05;13.55;;;9.70;;
55210;SDS011;41082;52.822;6.666;2024-02-26T01:14:31;13.90;;;10.43;;
55210;SDS011;41082;52.822;6.666;2024-02-26T01:16:56;15.57;;;10.05;;
55210;SDS011;41082;52.822;6.666;2024-02-26T01:19:22;13.85;;;10.10;;
55210;SDS011;41082;52.822;6.666;2024-02-26T01:21:48;14.35;;;10.40;;
55210;SDS011;41082;52.822;6.666;2024-02-26T01:24:13;14.30;;;9.70;;
55210;SDS011;41082;52.822;6.666;2024-02-26T01:26:40;15.77;;;9.63;;
55210;SDS011;41082;52.822;6.666;2024-02-26T01:29:06;15.13;;;10.73;;
55210;SDS011;41082;52.822;6.666;2024-02-26T01:31:32;14.73;;;10.18;;
55210;SDS011;41082;52.822;6.666;2024-02-26T01:33:57;14.48;;;10.68;;
55210;SDS011;41082;52.822;6.666;2024-02-26T01:36:23;16.45;;;11.18;;
55210;SDS011;41082;52.822;6.666;2024-02-26T01:38:48;14.40;;;10.98;;
55210;SDS011;41082;52.822;6.666;2024-02-26T01:41:14;15.27;;;10.95;;
55210;SDS011;41082;52.822;6.666;2024-02-26T01:43:40;15.38;;;11.25;;
55210;SDS011;41082;52.822;6.666;2024-02-26T01:46:06;17.80;;;11.93;;
55210;SDS011;41082;52.822;6.666;2024-02-26T01:48:37;14.52;;;10.57;;
55210;SDS011;41082;52.822;6.666;2024-02-26T01:51:02;18.27;;;11.00;;
55210;SDS011;41082;52.822;6.666;2024-02-26T01:53:28;16.00;;;11.00;;
55210;SDS011;41082;52.822;6.666;2024-02-26T01:55:55;17.48;;;11.80;;
55210;SDS011;41082;52.822;6.666;2024-02-26T01:58:20;15.90;;;11.43;;
55210;SDS011;41082;52.822;6.666;2024-02-26T02:00:46;16.23;;;10.55;;
55210;SDS011;41082;52.822;6.666;2024-02-26T02:03:12;17.77;;;11.82;;
55210;SDS011;41082;52.822;6.666;2024-02-26T02:05:38;17.40;;;10.68;;
55210;SDS011;41082;52.822;6.666;2024-02-26T02:08:07;16.05;;;10.98;;
55210;SDS011;41082;52.822;6.666;2024-02-26T02:10:34;17.85;;;11.52;;
55210;SDS011;41082;52.822;6.666;2024-02-26T02:13:00;16.55;;;11.43;;
55210;SDS011;41082;52.822;6.666;2024-02-26T02:15:25;19.48;;;11.45;;
55210;SDS011;41082;52.822;6.666;2024-02-26T02:17:51;17.42;;;11.45;;
55210;SDS011;41082;52.822;6.666;2024-02-26T02:20:17;18.75;;;12.27;;
55210;SDS011;41082;52.822;6.666;2024-02-26T02:22:46;18.25;;;12.10;;
55210;SDS011;41082;52.822;6.666;2024-02-26T02:25:12;20.95;;;13.60;;
55210;SDS011;41082;52.822;6.666;2024-02-26T02:27:38;19.70;;;12.65;;
55210;SDS011;41082;52.822;6.666;2024-02-26T02:30:05;22.23;;;13.43;;
55210;SDS011;41082;52.822;6.666;2024-02-26T02:32:32;20.27;;;13.07;;
55210;SDS011;41082;52.822;6.666;2024-02-26T02:34:58;22.20;;;13.57;;
55210;SDS011;41082;52.822;6.666;2024-02-26T02:37:24;24.63;;;14.45;;
55210;SDS011;41082;52.822;6.666;2024-02-26T02:39:50;25.80;;;14.50;;
55210;SDS011;41082;52.822;6.666;2024-02-26T02:42:15;22.70;;;14.07;;
55210;SDS011;41082;52.822;6.666;2024-02-26T02:44:41;31.10;;;15.23;;
55210;SDS011;41082;52.822;6.666;2024-02-26T02:47:06;25.20;;;14.43;;
55210;SDS011;41082;52.822;6.666;2024-02-26T02:49:32;24.73;;;15.55;;
55210;SDS011;41082;52.822;6.666;2024-02-26T02:51:58;28.70;;;15.20;;
55210;SDS011;41082;52.822;6.666;2024-02-26T02:54:23;27.55;;;16.25;;
55210;SDS011;41082;52.822;6.666;2024-02-26T02:56:49;29.00;;;15.77;;
55210;SDS011;41082;52.822;6.666;2024-02-26T02:59:14;26.75;;;16.08;;
55210;SDS011;41082;52.822;6.666;2024-02-26T03:01:40;28.17;;;16.02;;
55210;SDS011;41082;52.822;6.666;2024-02-26T03:04:06;27.40;;;16.52;;
55210;SDS011;41082;52.822;6.666;2024-02-26T03:06:31;33.13;;;17.27;;
55210;SDS011;41082;52.822;6.666;2024-02-26T03:08:57;32.67;;;17.05;;
55210;SDS011;41082;52.822;6.666;2024-02-26T03:11:23;29.52;;;16.70;;
55210;SDS011;41082;52.822;6.666;2024-02-26T03:13:48;29.05;;;16.88;;
55210;SDS011;41082;52.822;6.666;2024-02-26T03:16:14;31.42;;;16.55;;
55210;SDS011;41082;52.822;6.666;2024-02-26T03:18:39;29.42;;;16.65;;
55210;SDS011;41082;52.822;6.666;2024-02-26T03:21:05;33.72;;;17.25;;
55210;SDS011;41082;52.822;6.666;2024-02-26T03:23:31;32.47;;;17.25;;
55210;SDS011;41082;52.822;6.666;2024-02-26T03:26:01;30.98;;;17.77;;
55210;SDS011;41082;52.822;6.666;2024-02-26T03:28:28;34.58;;;19.25;;
55210;SDS011;41082;52.822;6.666;2024-02-26T03:30:54;35.58;;;19.25;;
55210;SDS011;41082;52.822;6.666;2024-02-26T03:33:20;33.50;;;18.42;;
55210;SDS011;41082;52.822;6.666;2024-02-26T03:35:45;34.97;;;18.90;;
55210;SDS011;41082;52.822;6.666;2024-02-26T03:38:11;31.58;;;18.75;;
55210;SDS011;41082;52.822;6.666;2024-02-26T03:40:36;35.65;;;19.00;;
55210;SDS011;41082;52.822;6.666;2024-02-26T03:43:02;38.15;;;20.70;;
55210;SDS011;41082;52.822;6.666;2024-02-26T03:45:30;37.10;;;19.20;;
55210;SDS011;41082;52.822;6.666;2024-02-26T03:47:55;37.90;;;19.38;;
55210;SDS011;41082;52.822;6.666;2024-02-26T03:50:21;37.83;;;20.38;;
55210;SDS011;41082;52.822;6.666;2024-02-26T03:52:46;38.10;;;19.80;;
55210;SDS011;41082;52.822;6.666;2024-02-26T03:55:12;37.75;;;19.40;;
55210;SDS011;41082;52.822;6.666;2024-02-26T03:57:37;36.90;;;20.27;;
55210;SDS011;41082;52.822;6.666;2024-02-26T04:00:03;36.85;;;20.27;;
55210;SDS011;41082;52.822;6.666;2024-02-26T04:02:29;37.22;;;19.58;;
55210;SDS011;41082;52.822;6.666;2024-02-26T04:04:55;38.00;;;21.25;;
55210;SDS011;41082;52.822;6.666;2024-02-26T04:07:20;38.72;;;20.63;;
55210;SDS011;41082;52.822;6.666;2024-02-26T04:09:47;38.67;;;21.42;;
55210;SDS011;41082;52.822;6.666;2024-02-26T04:12:13;42.25;;;21.60;;
55210;SDS011;41082;52.822;6.666;2024-02-26T04:14:39;36.97;;;20.45;;
55210;SDS011;41082;52.822;6.666;2024-02-26T04:17:05;41.85;;;22.33;;
55210;SDS011;41082;52.822;6.666;2024-02-26T04:19:30;40.17;;;22.40;;
55210;SDS011;41082;52.822;6.666;2024-02-26T04:21:56;39.13;;;21.67;;
55210;SDS011;41082;52.822;6.666;2024-02-26T04:24:21;42.95;;;23.00;;
55210;SDS011;41082;52.822;6.666;2024-02-26T04:26:47;39.20;;;22.08;;
55210;SDS011;41082;52.822;6.666;2024-02-26T04:29:14;34.92;;;20.92;;
55210;SDS011;41082;52.822;6.666;2024-02-26T04:31:40;38.92;;;21.15;;
55210;SDS011;41082;52.822;6.666;2024-02-26T04:34:07;38.00;;;21.60;;
55210;SDS011;41082;52.822;6.666;2024-02-26T04:36:40;37.42;;;21.33;;
55210;SDS011;41082;52.822;6.666;2024-02-26T04:39:18;37.55;;;21.35;;
55210;SDS011;41082;52.822;6.666;2024-02-26T04:41:44;36.47;;;20.67;;
55210;SDS011;41082;52.822;6.666;2024-02-26T04:44:09;33.55;;;18.65;;
55210;SDS011;41082;52.822;6.666;2024-02-26T04:46:35;37.15;;;20.83;;
55210;SDS011;41082;52.822;6.666;2024-02-26T04:49:01;33.90;;;20.05;;
55210;SDS011;41082;52.822;6.666;2024-02-26T04:51:26;37.97;;;20.33;;
55210;SDS011;41082;52.822;6.666;2024-02-26T04:53:52;30.95;;;18.27;;
55210;SDS011;41082;52.822;6.666;2024-02-26T04:56:19;28.95;;;17.35;;
55210;SDS011;41082;52.822;6.666;2024-02-26T04:58:46;31.30;;;18.42;;
55210;SDS011;41082;52.822;6.666;2024-02-26T05:01:11;27.55;;;16.73;;
55210;SDS011;41082;52.822;6.666;2024-02-26T05:03:37;27.95;;;16.60;;
55210;SDS011;41082;52.822;6.666;2024-02-26T05:06:03;24.98;;;16.05;;
55210;SDS011;41082;52.822;6.666;2024-02-26T05:08:30;26.85;;;16.25;;
55210;SDS011;41082;52.822;6.666;2024-02-26T05:10:55;25.20;;;15.48;;
55210;SDS011;41082;52.822;6.666;2024-02-26T05:13:21;22.02;;;14.30;;
55210;SDS011;41082;52.822;6.666;2024-02-26T05:15:47;23.30;;;14.00;;
55210;SDS011;41082;52.822;6.666;2024-02-26T05:18:14;17.73;;;12.43;;
55210;SDS011;41082;52.822;6.666;2024-02-26T05:20:40;17.40;;;12.48;;
55210;SDS011;41082;52.822;6.666;2024-02-26T05:23:06;16.30;;;11.10;;
55210;SDS011;41082;52.822;6.666;2024-02-26T05:25:31;16.45;;;11.43;;
55210;SDS011;41082;52.822;6.666;2024-02-26T05:27:57;16.20;;;11.50;;
55210;SDS011;41082;52.822;6.666;2024-02-26T05:30:23;14.00;;;10.05;;
55210;SDS011;41082;52.822;6.666;2024-02-26T05:32:48;13.02;;;10.13;;
55210;SDS011;41082;52.822;6.666;2024-02-26T05:35:14;11.20;;;8.48;;
55210;SDS011;41082;52.822;6.666;2024-02-26T05:37:40;13.02;;;9.20;;
55210;SDS011;41082;52.822;6.666;2024-02-26T05:40:05;11.70;;;8.52;;
55210;SDS011;41082;52.822;6.666;2024-02-26T05:42:31;9.10;;;7.40;;
55210;SDS011;41082;52.822;6.666;2024-02-26T05:44:58;9.55;;;7.03;;
55210;SDS011;41082;52.822;6.666;2024-02-26T05:47:24;10.30;;;7.75;;
55210;SDS011;41082;52.822;6.666;2024-02-26T05:49:49;8.13;;;6.90;;
55210;SDS011;41082;52.822;6.666;2024-02-26T05:52:15;10.98;;;7.80;;
55210;SDS011;41082;52.822;6.666;2024-02-26T05:54:40;8.73;;;7.35;;
55210;SDS011;41082;52.822;6.666;2024-02-26T05:57:06;9.10;;;7.13;;
55210;SDS011;41082;52.822;6.666;2024-02-26T05:59:32;11.30;;;7.90;;
55210;SDS011;41082;52.822;6.666;2024-02-26T06:01:57;9.55;;;7.50;;
55210;SDS011;41082;52.822;6.666;2024-02-26T06:04:23;10.95;;;7.30;;
55210;SDS011;41082;52.822;6.666;2024-02-26T06:06:49;13.05;;;7.70;;
55210;SDS011;41082;52.822;6.666;2024-02-26T06:09:14;9.88;;;6.95;;
55210;SDS011;41082;52.822;6.666;2024-02-26T06:11:40;13.82;;;7.63;;
55210;SDS011;41082;52.822;6.666;2024-02-26T06:14:06;9.32;;;7.20;;
55210;SDS011;41082;52.822;6.666;2024-02-26T06:16:31;10.70;;;7.82;;
55210;SDS011;41082;52.822;6.666;2024-02-26T06:18:58;8.88;;;6.90;;
55210;SDS011;41082;52.822;6.666;2024-02-26T06:21:26;10.32;;;6.63;;
55210;SDS011;41082;52.822;6.666;2024-02-26T06:23:51;8.85;;;6.40;;
55210;SDS011;41082;52.822;6.666;2024-02-26T06:26:17;9.82;;;6.22;;
55210;SDS011;41082;52.822;6.666;2024-02-26T06:28:43;6.72;;;5.97;;
55210;SDS011;41082;52.822;6.666;2024-02-26T06:31:09;9.65;;;6.03;;
55210;SDS011;41082;52.822;6.666;2024-02-26T06:33:35;8.30;;;5.30;;
55210;SDS011;41082;52.822;6.666;2024-02-26T06:36:01;8.65;;;5.80;;
55210;SDS011;41082;52.822;6.666;2024-02-26T06:38:26;8.88;;;5.38;;
55210;SDS011;41082;52.822;6.666;2024-02-26T06:40:52;8.55;;;5.75;;
55210;SDS011;41082;52.822;6.666;2024-02-26T06:43:18;8.05;;;5.63;;
55210;SDS011;41082;52.822;6.666;2024-02-26T06:45:44;9.15;;;5.18;;
55210;SDS011;41082;52.822;6.666;2024-02-26T06:48:10;6.03;;;4.97;;
55210;SDS011;41082;52.822;6.666;2024-02-26T06:50:35;6.20;;;4.93;;
55210;SDS011;41082;52.822;6.666;2024-02-26T06:53:01;6.25;;;4.90;;
55210;SDS011;41082;52.822;6.666;2024-02-26T06:55:27;8.93;;;5.28;;
55210;SDS011;41082;52.822;6.666;2024-02-26T06:57:53;5.38;;;4.53;;
55210;SDS011;41082;52.822;6.666;2024-02-26T07:00:18;5.90;;;4.43;;
55210;SDS011;41082;52.822;6.666;2024-02-26T07:02:44;7.13;;;4.82;;
55210;SDS011;41082;52.822;6.666;2024-02-26T07:05:10;7.78;;;4.72;;
55210;SDS011;41082;52.822;6.666;2024-02-26T07:07:36;8.07;;;5.05;;
55210;SDS011;41082;52.822;6.666;2024-02-26T07:10:01;5.22;;;4.25;;
55210;SDS011;41082;52.822;6.666;2024-02-26T07:12:29;7.07;;;4.63;;
55210;SDS011;41082;52.822;6.666;2024-02-26T07:14:55;5.25;;;4.25;;
55210;SDS011;41082;52.822;6.666;2024-02-26T07:17:21;6.90;;;4.20;;
55210;SDS011;41082;52.822;6.666;2024-02-26T07:19:47;6.18;;;4.88;;
55210;SDS011;41082;52.822;6.666;2024-02-26T07:22:13;6.13;;;4.47;;
55210;SDS011;41082;52.822;6.666;2024-02-26T07:24:39;7.40;;;4.43;;
55210;SDS011;41082;52.822;6.666;2024-02-26T07:27:04;5.78;;;4.45;;
55210;SDS011;41082;52.822;6.666;2024-02-26T07:29:30;7.53;;;4.13;;
55210;SDS011;41082;52.822;6.666;2024-02-26T07:31:56;6.95;;;4.22;;
55210;SDS011;41082;52.822;6.666;2024-02-26T07:34:21;5.88;;;4.20;;
55210;SDS011;41082;52.822;6.666;2024-02-26T07:36:52;4.43;;;3.53;;
55210;SDS011;41082;52.822;6.666;2024-02-26T07:39:19;6.03;;;3.85;;
55210;SDS011;41082;52.822;6.666;2024-02-26T07:41:44;4.70;;;3.63;;
55210;SDS011;41082;52.822;6.666;2024-02-26T07:44:13;6.22;;;3.85;;
55210;SDS011;41082;52.822;6.666;2024-02-26T07:46:39;7.75;;;3.35;;
55210;SDS011;41082;52.822;6.666;2024-02-26T07:49:05;4.53;;;3.13;;
55210;SDS011;41082;52.822;6.666;2024-02-26T07:51:30;4.43;;;3.00;;
55210;SDS011;41082;52.822;6.666;2024-02-26T07:53:56;3.97;;;3.25;;
55210;SDS011;41082;52.822;6.666;2024-02-26T07:56:22;3.83;;;3.42;;
55210;SDS011;41082;52.822;6.666;2024-02-26T07:58:47;5.15;;;3.10;;
55210;SDS011;41082;52.822;6.666;2024-02-26T08:01:13;4.57;;;3.55;;
55210;SDS011;41082;52.822;6.666;2024-02-26T08:03:40;5.55;;;3.20;;
55210;SDS011;41082;52.822;6.666;2024-02-26T08:06:05;3.78;;;2.83;;
55210;SDS011;41082;52.822;6.666;2024-02-26T08:08:32;3.35;;;3.05;;
55210;SDS011;41082;52.822;6.666;2024-02-26T08:10:58;3.42;;;2.97;;
55210;SDS011;41082;52.822;6.666;2024-02-26T08:13:24;3.85;;;3.22;;
55210;SDS011;41082;52.822;6.666;2024-02-26T08:15:51;3.97;;;3.42;;
55210;SDS011;41082;52.822;6.666;2024-02-26T08:18:16;3.65;;;3.25;;
55210;SDS011;41082;52.822;6.666;2024-02-26T08:20:42;5.55;;;4.40;;
55210;SDS011;41082;52.822;6.666;2024-02-26T08:23:08;4.50;;;4.05;;
55210;SDS011;41082;52.822;6.666;2024-02-26T08:25:33;4.65;;;3.42;;
55210;SDS011;41082;52.822;6.666;2024-02-26T08:27:59;5.82;;;3.80;;
55210;SDS011;41082;52.822;6.666;2024-02-26T08:30:25;3.70;;;3.33;;
55210;SDS011;41082;52.822;6.666;2024-02-26T08:32:51;4.82;;;3.42;;
55210;SDS011;41082;52.822;6.666;2024-02-26T08:35:17;4.43;;;3.13;;
55210;SDS011;41082;52.822;6.666;2024-02-26T08:37:46;4.22;;;3.30;;
55210;SDS011;41082;52.822;6.666;2024-02-26T08:40:12;3.70;;;2.92;;
55210;SDS011;41082;52.822;6.666;2024-02-26T08:42:38;4.15;;;3.15;;
55210;SDS011;41082;52.822;6.666;2024-02-26T08:45:04;4.63;;;3.47;;
55210;SDS011;41082;52.822;6.666;2024-02-26T08:47:30;4.70;;;3.22;;
55210;SDS011;41082;52.822;6.666;2024-02-26T08:49:57;3.60;;;3.13;;
55210;SDS011;41082;52.822;6.666;2024-02-26T08:52:23;4.43;;;3.42;;
55210;SDS011;41082;52.822;6.666;2024-02-26T08:54:49;4.90;;;3.60;;
55210;SDS011;41082;52.822;6.666;2024-02-26T08:57:15;4.20;;;3.38;;
55210;SDS011;41082;52.822;6.666;2024-02-26T08:59:40;6.35;;;3.55;;
55210;SDS011;41082;52.822;6.666;2024-02-26T09:02:07;4.57;;;3.05;;
55210;SDS011;41082;52.822;6.666;2024-02-26T09:04:34;5.00;;;3.50;;
55210;SDS011;41082;52.822;6.666;2024-02-26T09:07:00;6.55;;;3.95;;
55210;SDS011;41082;52.822;6.666;2024-02-26T09:09:27;5.00;;;3.20;;
55210;SDS011;41082;52.822;6.666;2024-02-26T09:11:52;4.60;;;3.15;;
55210;SDS011;41082;52.822;6.666;2024-02-26T09:14:20;3.83;;;3.22;;
55210;SDS011;41082;52.822;6.666;2024-02-26T09:16:46;4.63;;;3.67;;
55210;SDS011;41082;52.822;6.666;2024-02-26T09:19:13;4.30;;;3.28;;
55210;SDS011;41082;52.822;6.666;2024-02-26T09:21:46;4.03;;;3.63;;
55210;SDS011;41082;52.822;6.666;2024-02-26T09:24:12;4.88;;;3.55;;
55210;SDS011;41082;52.822;6.666;2024-02-26T09:26:38;4.97;;;3.92;;
55210;SDS011;41082;52.822;6.666;2024-02-26T09:29:04;6.65;;;5.85;;
55210;SDS011;41082;52.822;6.666;2024-02-26T09:31:30;5.43;;;3.90;;
55210;SDS011;41082;52.822;6.666;2024-02-26T09:33:56;3.75;;;3.13;;
55210;SDS011;41082;52.822;6.666;2024-02-26T09:36:21;5.35;;;3.63;;
55210;SDS011;41082;52.822;6.666;2024-02-26T09:38:47;4.00;;;3.53;;
55210;SDS011;41082;52.822;6.666;2024-02-26T09:41:14;4.35;;;3.58;;
55210;SDS011;41082;52.822;6.666;2024-02-26T09:43:41;4.60;;;3.80;;
55210;SDS011;41082;52.822;6.666;2024-02-26T09:46:10;5.28;;;4.05;;
55210;SDS011;41082;52.822;6.666;2024-02-26T09:48:36;5.00;;;3.60;;
55210;SDS011;41082;52.822;6.666;2024-02-26T09:51:02;5.97;;;4.00;;
55210;SDS011;41082;52.822;6.666;2024-02-26T09:53:29;6.13;;;3.80;;
55210;SDS011;41082;52.822;6.666;2024-02-26T09:55:57;5.25;;;4.55;;
55210;SDS011;41082;52.822;6.666;2024-02-26T09:58:23;4.72;;;4.00;;
55210;SDS011;41082;52.822;6.666;2024-02-26T10:00:51;4.55;;;4.07;;
55210;SDS011;41082;52.822;6.666;2024-02-26T10:03:21;4.47;;;4.03;;
55210;SDS011;41082;52.822;6.666;2024-02-26T10:05:51;5.57;;;3.83;;
55210;SDS011;41082;52.822;6.666;2024-02-26T10:08:20;4.65;;;4.10;;
55210;SDS011;41082;52.822;6.666;2024-02-26T10:10:47;5.03;;;3.78;;
55210;SDS011;41082;52.822;6.666;2024-02-26T10:13:13;4.50;;;3.80;;
55210;SDS011;41082;52.822;6.666;2024-02-26T10:15:39;4.38;;;3.78;;
55210;SDS011;41082;52.822;6.666;2024-02-26T10:18:05;5.60;;;3.83;;
55210;SDS011;41082;52.822;6.666;2024-02-26T10:20:31;5.28;;;4.20;;
55210;SDS011;41082;52.822;6.666;2024-02-26T10:22:57;4.32;;;3.72;;
55210;SDS011;41082;52.822;6.666;2024-02-26T10:25:23;4.68;;;4.00;;
55210;SDS011;41082;52.822;6.666;2024-02-26T10:27:49;4.90;;;4.22;;
55210;SDS011;41082;52.822;6.666;2024-02-26T10:30:16;5.53;;;4.38;;
55210;SDS011;41082;52.822;6.666;2024-02-26T10:32:46;7.68;;;5.65;;
55210;SDS011;41082;52.822;6.666;2024-02-26T10:35:13;5.78;;;4.88;;
55210;SDS011;41082;52.822;6.666;2024-02-26T10:37:40;6.05;;;4.32;;
55210;SDS011;41082;52.822;6.666;2024-02-26T10:40:09;6.13;;;4.57;;
55210;SDS011;41082;52.822;6.666;2024-02-26T10:42:39;5.65;;;4.60;;
55210;SDS011;41082;52.822;6.666;2024-02-26T10:45:05;5.93;;;4.82;;
55210;SDS011;41082;52.822;6.666;2024-02-26T10:47:32;5.32;;;4.40;;
55210;SDS011;41082;52.822;6.666;2024-02-26T10:49:59;4.70;;;4.13;;
55210;SDS011;41082;52.822;6.666;2024-02-26T10:52:26;6.57;;;4.55;;
55210;SDS011;41082;52.822;6.666;2024-02-26T10:54:56;5.55;;;5.00;;
55210;SDS011;41082;52.822;6.666;2024-02-26T10:57:25;5.18;;;4.30;;
55210;SDS011;41082;52.822;6.666;2024-02-26T10:59:54;7.00;;;5.38;;
55210;SDS011;41082;52.822;6.666;2024-02-26T11:02:21;6.70;;;4.93;;
55210;SDS011;41082;52.822;6.666;2024-02-26T11:04:47;6.20;;;4.93;;
55210;SDS011;41082;52.822;6.666;2024-02-26T11:07:13;6.03;;;4.72;;
55210;SDS011;41082;52.822;6.666;2024-02-26T11:09:40;6.68;;;5.10;;
55210;SDS011;41082;52.822;6.666;2024-02-26T11:12:10;5.68;;;4.40;;
55210;SDS011;41082;52.822;6.666;2024-02-26T11:14:40;5.72;;;4.30;;
55210;SDS011;41082;52.822;6.666;2024-02-26T11:19:36;6.90;;;4.47;;
55210;SDS011;41082;52.822;6.666;2024-02-26T11:22:04;5.90;;;4.82;;
55210;SDS011;41082;52.822;6.666;2024-02-26T11:24:30;5.35;;;4.65;;
55210;SDS011;41082;52.822;6.666;2024-02-26T11:26:57;6.05;;;4.75;;
55210;SDS011;41082;52.822;6.666;2024-02-26T11:29:34;6.22;;;4.55;;
55210;SDS011;41082;52.822;6.666;2024-02-26T11:32:05;5.10;;;3.45;;
55210;SDS011;41082;52.822;6.666;2024-02-26T11:34:31;5.25;;;4.55;;
55210;SDS011;41082;52.822;6.666;2024-02-26T11:36:57;4.85;;;4.03;;
55210;SDS011;41082;52.822;6.666;2024-02-26T11:39:45;5.65;;;4.00;;
55210;SDS011;41082;52.822;6.666;2024-02-26T11:42:15;5.72;;;3.80;;
55210;SDS011;41082;52.822;6.666;2024-02-26T11:44:41;4.22;;;3.58;;
55210;SDS011;41082;52.822;6.666;2024-02-26T11:47:11;5.50;;;4.00;;
55210;SDS011;41082;52.822;6.666;2024-02-26T11:49:37;5.57;;;4.05;;
55210;SDS011;41082;52.822;6.666;2024-02-26T11:52:04;6.70;;;4.10;;
55210;SDS011;41082;52.822;6.666;2024-02-26T11:54:48;4.93;;;3.90;;
55210;SDS011;41082;52.822;6.666;2024-02-26T12:00:16;5.78;;;3.90;;
55210;SDS011;41082;52.822;6.666;2024-02-26T12:02:51;5.80;;;3.67;;
55210;SDS011;41082;52.822;6.666;2024-02-26T12:05:23;4.93;;;3.60;;
55210;SDS011;41082;52.822;6.666;2024-02-26T12:07:52;3.97;;;3.40;;
55210;SDS011;41082;52.822;6.666;2024-02-26T12:12:59;5.80;;;4.68;;
55210;SDS011;41082;52.822;6.666;2024-02-26T12:15:31;4.82;;;3.88;;
55210;SDS011;41082;52.822;6.666;2024-02-26T12:18:00;5.35;;;3.72;;
55210;SDS011;41082;52.822;6.666;2024-02-26T12:20:27;5.00;;;3.75;;
55210;SDS011;41082;52.822;6.666;2024-02-26T12:22:52;5.93;;;3.83;;
55210;SDS011;41082;52.822;6.666;2024-02-26T12:25:24;5.45;;;4.05;;
55210;SDS011;41082;52.822;6.666;2024-02-26T12:27:52;5.70;;;4.15;;
55210;SDS011;41082;52.822;6.666;2024-02-26T12:30:21;4.78;;;3.80;;
55210;SDS011;41082;52.822;6.666;2024-02-26T12:32:47;5.88;;;3.78;;
55210;SDS011;41082;52.822;6.666;2024-02-26T12:35:15;4.57;;;3.30;;
55210;SDS011;41082;52.822;6.666;2024-02-26T12:37:41;5.30;;;4.05;;
55210;SDS011;41082;52.822;6.666;2024-02-26T12:40:08;6.65;;;4.47;;
55210;SDS011;41082;52.822;6.666;2024-02-26T12:42:34;6.15;;;4.22;;
55210;SDS011;41082;52.822;6.666;2024-02-26T12:45:10;5.45;;;3.53;;
55210;SDS011;41082;52.822;6.666;2024-02-26T12:47:37;6.07;;;4.30;;
55210;SDS011;41082;52.822;6.666;2024-02-26T12:50:07;5.95;;;4.30;;
55210;SDS011;41082;52.822;6.666;2024-02-26T12:52:35;5.40;;;3.95;;
55210;SDS011;41082;52.822;6.666;2024-02-26T12:55:02;5.35;;;4.10;;
55210;SDS011;41082;52.822;6.666;2024-02-26T12:57:31;7.10;;;4.40;;
55210;SDS011;41082;52.822;6.666;2024-02-26T13:00:01;8.30;;;4.40;;
55210;SDS011;41082;52.822;6.666;2024-02-26T13:02:29;5.80;;;3.88;;
55210;SDS011;41082;52.822;6.666;2024-02-26T13:04:56;5.93;;;4.32;;
55210;SDS011;41082;52.822;6.666;2024-02-26T13:07:22;5.20;;;3.97;;
55210;SDS011;41082;52.822;6.666;2024-02-26T13:09:48;8.23;;;5.22;;
55210;SDS011;41082;52.822;6.666;2024-02-26T13:12:16;4.93;;;3.83;;
55210;SDS011;41082;52.822;6.666;2024-02-26T13:14:42;5.63;;;4.00;;
55210;SDS011;41082;52.822;6.666;2024-02-26T13:17:07;6.45;;;4.20;;
55210;SDS011;41082;52.822;6.666;2024-02-26T13:19:33;4.50;;;3.38;;
55210;SDS011;41082;52.822;6.666;2024-02-26T13:22:05;6.18;;;3.95;;
55210;SDS011;41082;52.822;6.666;2024-02-26T13:24:32;7.53;;;4.93;;
55210;SDS011;41082;52.822;6.666;2024-02-26T13:27:01;7.40;;;4.03;;
55210;SDS011;41082;52.822;6.666;2024-02-26T13:29:30;5.07;;;4.10;;
55210;SDS011;41082;52.822;6.666;2024-02-26T13:31:57;6.28;;;4.55;;
55210;SDS011;41082;52.822;6.666;2024-02-26T13:34:23;6.93;;;4.50;;
55210;SDS011;41082;52.822;6.666;2024-02-26T13:36:50;9.05;;;5.13;;
55210;SDS011;41082;52.822;6.666;2024-02-26T13:39:23;6.93;;;4.65;;
55210;SDS011;41082;52.822;6.666;2024-02-26T13:41:49;6.13;;;4.63;;
55210;SDS011;41082;52.822;6.666;2024-02-26T13:44:16;7.75;;;4.97;;
55210;SDS011;41082;52.822;6.666;2024-02-26T13:46:41;7.78;;;5.40;;
55210;SDS011;41082;52.822;6.666;2024-02-26T13:49:08;9.20;;;5.95;;
55210;SDS011;41082;52.822;6.666;2024-02-26T13:51:34;7.45;;;5.13;;
55210;SDS011;41082;52.822;6.666;2024-02-26T13:54:01;6.30;;;5.13;;
55210;SDS011;41082;52.822;6.666;2024-02-26T13:56:27;9.45;;;6.13;;
55210;SDS011;41082;52.822;6.666;2024-02-26T13:58:53;7.15;;;5.35;;
55210;SDS011;41082;52.822;6.666;2024-02-26T14:01:18;6.13;;;5.38;;
55210;SDS011;41082;52.822;6.666;2024-02-26T14:03:44;6.55;;;5.47;;
55210;SDS011;41082;52.822;6.666;2024-02-26T14:06:10;6.95;;;5.32;;
55210;SDS011;41082;52.822;6.666;2024-02-26T14:08:36;8.85;;;5.68;;
55210;SDS011;41082;52.822;6.666;2024-02-26T14:11:02;6.60;;;5.05;;
55210;SDS011;41082;52.822;6.666;2024-02-26T14:13:28;6.97;;;5.25;;
55210;SDS011;41082;52.822;6.666;2024-02-26T14:15:53;7.18;;;5.65;;
55210;SDS011;41082;52.822;6.666;2024-02-26T14:18:19;7.45;;;5.10;;
55210;SDS011;41082;52.822;6.666;2024-02-26T14:20:45;7.53;;;5.25;;
55210;SDS011;41082;52.822;6.666;2024-02-26T14:23:10;8.63;;;5.72;;
55210;SDS011;41082;52.822;6.666;2024-02-26T14:25:36;6.90;;;5.75;;
55210;SDS011;41082;52.822;6.666;2024-02-26T14:28:02;8.13;;;5.72;;
55210;SDS011;41082;52.822;6.666;2024-02-26T14:30:28;7.95;;;5.70;;
55210;SDS011;41082;52.822;6.666;2024-02-26T14:32:54;7.93;;;5.40;;
55210;SDS011;41082;52.822;6.666;2024-02-26T14:35:20;9.80;;;6.00;;
55210;SDS011;41082;52.822;6.666;2024-02-26T14:37:45;6.55;;;5.35;;
55210;SDS011;41082;52.822;6.666;2024-02-26T14:40:13;7.35;;;6.03;;
55210;SDS011;41082;52.822;6.666;2024-02-26T14:42:39;8.82;;;6.07;;